createdAt,value
2018-02-22T00:00:37.065Z,0.00
2018-02-22T00:01:37.048Z,0.00
2018-02-22T00:02:37.030Z,0.00
2018-02-22T00:03:37.013Z,0.00
2018-02-22T00:04:36.998Z,0.00
2018-02-22T00:05:37.010Z,0.00
2018-02-22T00:06:36.967Z,0.00
2018-02-22T00:07:36.953Z,0.00
2018-02-22T00:08:36.933Z,0.00
2018-02-22T00:09:36.921Z,0.00
2018-02-22T00:10:36.905Z,0.00
2018-02-22T00:11:36.888Z,0.00
2018-02-22T00:12:36.869Z,0.00
2018-02-22T00:13:36.852Z,0.00
2018-02-22T00:14:36.834Z,0.00
2018-02-22T00:15:36.819Z,0.00
2018-02-22T00:16:36.801Z,0.00
2018-02-22T00:17:36.787Z,0.00
2018-02-22T00:18:36.770Z,0.00
2018-02-22T00:19:36.771Z,0.00
2018-02-22T00:20:36.734Z,0.00
2018-02-22T00:21:36.719Z,0.00
2018-02-22T00:22:36.706Z,0.00
2018-02-22T00:23:36.690Z,0.00
2018-02-22T00:24:36.672Z,0.00
2018-02-22T00:25:36.655Z,0.00
2018-02-22T00:26:36.637Z,0.00
2018-02-22T00:27:36.622Z,0.00
2018-02-22T00:28:36.602Z,0.00
2018-02-22T00:29:36.594Z,0.00
2018-02-22T00:30:36.573Z,0.00
2018-02-22T00:31:36.561Z,0.00
2018-02-22T00:32:36.549Z,0.00
2018-02-22T00:33:36.542Z,0.00
2018-02-22T00:34:36.522Z,0.00
2018-02-22T00:35:36.492Z,0.00
2018-02-22T00:36:36.466Z,0.00
2018-02-22T00:37:36.459Z,0.00
2018-02-22T00:38:36.440Z,0.00
2018-02-22T00:39:36.426Z,0.00
2018-02-22T00:40:36.408Z,0.00
2018-02-22T00:41:36.392Z,0.00
2018-02-22T00:42:36.377Z,0.00
2018-02-22T00:43:36.381Z,0.00
2018-02-22T00:44:36.341Z,0.00
2018-02-22T00:45:36.328Z,0.00
2018-02-22T00:46:36.309Z,0.00
2018-02-22T00:47:36.292Z,0.00
2018-02-22T00:48:36.280Z,0.00
2018-02-22T00:49:36.262Z,0.00
2018-02-22T00:50:36.246Z,0.00
2018-02-22T00:51:36.234Z,0.00
2018-02-22T00:52:36.211Z,0.00
2018-02-22T00:53:36.194Z,0.00
2018-02-22T00:54:36.178Z,0.00
2018-02-22T00:55:36.163Z,0.00
2018-02-22T00:56:36.145Z,0.00
2018-02-22T00:57:36.133Z,0.00
2018-02-22T00:58:36.114Z,0.00
2018-02-22T00:59:36.100Z,0.00
2018-02-22T01:00:36.083Z,0.00
2018-02-22T01:01:36.079Z,0.00
2018-02-22T01:02:36.047Z,0.00
2018-02-22T01:03:36.041Z,0.00
2018-02-22T01:04:36.016Z,0.00
2018-02-22T01:05:36.004Z,0.00
2018-02-22T01:06:35.978Z,0.00
2018-02-22T01:07:35.971Z,0.00
2018-02-22T01:08:35.954Z,0.00
2018-02-22T01:09:35.934Z,0.00
2018-02-22T01:10:35.919Z,0.00
2018-02-22T01:11:35.901Z,0.00
2018-02-22T01:12:35.888Z,0.00
2018-02-22T01:13:35.865Z,0.00
2018-02-22T01:14:35.852Z,0.00
2018-02-22T01:15:35.835Z,0.00
2018-02-22T01:16:35.821Z,0.00
2018-02-22T01:17:35.800Z,0.00
2018-02-22T01:18:35.786Z,0.00
2018-02-22T01:19:35.767Z,0.00
2018-02-22T01:20:35.757Z,0.00
2018-02-22T01:21:35.735Z,0.00
2018-02-22T01:22:35.721Z,0.00
2018-02-22T01:23:35.704Z,0.00
2018-02-22T01:24:35.688Z,0.00
2018-02-22T01:25:35.671Z,0.00
2018-02-22T01:26:35.657Z,0.00
2018-02-22T01:27:35.630Z,0.00
2018-02-22T01:28:35.621Z,0.00
2018-02-22T01:29:35.607Z,0.00
2018-02-22T01:30:35.590Z,0.00
2018-02-22T01:31:35.570Z,0.00
2018-02-22T01:32:35.554Z,0.00
2018-02-22T01:33:35.542Z,0.00
2018-02-22T01:34:35.525Z,0.00
2018-02-22T01:35:35.509Z,0.00
2018-02-22T01:36:35.490Z,0.00
2018-02-22T01:37:35.476Z,0.00
2018-02-22T01:38:35.469Z,0.00
2018-02-22T01:39:35.439Z,0.00
2018-02-22T01:40:35.425Z,0.00
2018-02-22T01:41:35.404Z,0.00
2018-02-22T01:42:35.390Z,0.00
2018-02-22T01:43:35.377Z,0.00
2018-02-22T01:44:35.357Z,0.00
2018-02-22T01:45:35.345Z,0.00
2018-02-22T01:46:35.327Z,0.00
2018-02-22T01:47:35.308Z,0.00
2018-02-22T01:48:35.299Z,0.00
2018-02-22T01:49:35.280Z,0.00
2018-02-22T01:50:35.259Z,0.00
2018-02-22T01:51:35.244Z,0.00
2018-02-22T01:52:35.228Z,0.00
2018-02-22T01:53:35.212Z,0.00
2018-02-22T01:54:35.196Z,0.00
2018-02-22T01:55:35.179Z,0.00
2018-02-22T01:56:35.159Z,0.00
2018-02-22T01:57:35.146Z,0.00
2018-02-22T01:58:35.131Z,0.00
2018-02-22T01:59:35.117Z,0.00
2018-02-22T02:00:35.097Z,0.00
2018-02-22T02:01:35.081Z,0.00
2018-02-22T02:02:35.059Z,0.00
2018-02-22T02:03:35.049Z,0.00
2018-02-22T02:04:35.030Z,0.00
2018-02-22T02:05:35.015Z,0.00
2018-02-22T02:06:35.007Z,0.00
2018-02-22T02:07:34.984Z,0.00
2018-02-22T02:08:34.966Z,0.00
2018-02-22T02:09:34.949Z,0.00
2018-02-22T02:10:34.934Z,0.00
2018-02-22T02:11:34.912Z,0.00
2018-02-22T02:12:34.903Z,0.00
2018-02-22T02:13:34.887Z,0.00
2018-02-22T02:14:34.872Z,0.00
2018-02-22T02:15:34.855Z,0.00
2018-02-22T02:16:34.835Z,0.00
2018-02-22T02:17:34.822Z,0.00
2018-02-22T02:18:34.806Z,0.00
2018-02-22T02:19:34.790Z,0.00
2018-02-22T02:20:34.773Z,0.00
2018-02-22T02:21:34.758Z,0.00
2018-02-22T02:22:34.739Z,0.00
2018-02-22T02:23:34.722Z,0.00
2018-02-22T02:24:34.744Z,0.00
2018-02-22T02:25:34.693Z,0.00
2018-02-22T02:26:34.675Z,0.00
2018-02-22T02:27:34.660Z,0.00
2018-02-22T02:28:34.643Z,0.00
2018-02-22T02:29:34.653Z,0.00
2018-02-22T02:30:34.614Z,0.00
2018-02-22T02:31:34.592Z,0.00
2018-02-22T02:32:34.576Z,0.00
2018-02-22T02:33:34.566Z,0.00
2018-02-22T02:34:34.582Z,0.00
2018-02-22T02:35:34.532Z,0.00
2018-02-22T02:36:34.515Z,0.00
2018-02-22T02:37:34.497Z,0.00
2018-02-22T02:38:34.481Z,0.00
2018-02-22T02:39:34.461Z,0.00
2018-02-22T02:40:34.450Z,0.00
2018-02-22T02:41:34.432Z,0.00
2018-02-22T02:42:34.426Z,0.00
2018-02-22T02:43:34.397Z,0.00
2018-02-22T02:44:34.385Z,0.00
2018-02-22T02:45:34.371Z,0.00
2018-02-22T02:46:34.342Z,0.00
2018-02-22T02:47:34.335Z,0.00
2018-02-22T02:48:34.317Z,0.00
2018-02-22T02:49:34.302Z,0.00
2018-02-22T02:50:34.288Z,0.00
2018-02-22T02:51:34.273Z,0.00
2018-02-22T02:52:34.292Z,0.00
2018-02-22T02:53:34.237Z,0.00
2018-02-22T02:54:34.223Z,0.00
2018-02-22T02:55:34.204Z,0.00
2018-02-22T02:56:34.188Z,0.00
2018-02-22T02:57:34.174Z,0.00
2018-02-22T02:58:34.158Z,0.00
2018-02-22T02:59:34.134Z,0.00
2018-02-22T03:00:34.123Z,0.00
2018-02-22T03:01:34.111Z,0.00
2018-02-22T03:02:34.092Z,0.00
2018-02-22T03:03:34.080Z,0.00
2018-02-22T03:04:34.078Z,0.00
2018-02-22T03:05:34.043Z,0.00
2018-02-22T03:06:34.031Z,0.00
2018-02-22T03:07:34.014Z,0.00
2018-02-22T03:08:33.996Z,0.00
2018-02-22T03:09:33.980Z,0.00
2018-02-22T03:10:33.969Z,0.00
2018-02-22T03:11:33.963Z,0.00
2018-02-22T03:12:33.930Z,0.00
2018-02-22T03:13:33.920Z,0.00
2018-02-22T03:14:33.907Z,0.00
2018-02-22T03:15:33.888Z,0.00
2018-02-22T03:16:33.867Z,0.00
2018-02-22T03:17:33.853Z,0.00
2018-02-22T03:18:33.836Z,0.00
2018-02-22T03:19:33.818Z,0.00
2018-02-22T03:20:33.804Z,0.00
2018-02-22T03:21:33.785Z,0.00
2018-02-22T03:22:33.773Z,0.00
2018-02-22T03:23:33.759Z,0.00
2018-02-22T03:24:33.737Z,0.00
2018-02-22T03:25:33.719Z,0.00
2018-02-22T03:26:33.712Z,0.00
2018-02-22T03:27:33.691Z,0.00
2018-02-22T03:28:33.674Z,0.00
2018-02-22T03:29:33.656Z,0.00
2018-02-22T03:30:33.647Z,0.00
2018-02-22T03:31:33.626Z,0.00
2018-02-22T03:32:33.609Z,0.00
2018-02-22T03:33:33.613Z,0.00
2018-02-22T03:34:33.581Z,0.00
2018-02-22T03:35:33.559Z,0.00
2018-02-22T03:36:33.540Z,0.00
2018-02-22T03:37:33.528Z,0.00
2018-02-22T03:38:33.512Z,0.00
2018-02-22T03:39:33.499Z,0.00
2018-02-22T03:40:33.480Z,0.00
2018-02-22T03:41:33.462Z,0.00
2018-02-22T03:42:33.447Z,0.00
2018-02-22T03:43:33.431Z,0.00
2018-02-22T03:44:33.405Z,0.00
2018-02-22T03:45:33.402Z,0.00
2018-02-22T03:46:33.380Z,0.00
2018-02-22T03:47:33.366Z,0.00
2018-02-22T03:48:33.357Z,0.00
2018-02-22T03:49:33.335Z,0.00
2018-02-22T03:50:33.315Z,0.00
2018-02-22T03:51:33.302Z,0.00
2018-02-22T03:52:33.284Z,0.00
2018-02-22T03:53:33.270Z,0.00
2018-02-22T03:54:33.254Z,0.00
2018-02-22T03:55:33.236Z,0.00
2018-02-22T03:56:33.219Z,0.00
2018-02-22T03:57:33.204Z,0.00
2018-02-22T03:58:33.186Z,0.00
2018-02-22T03:59:33.171Z,0.00
2018-02-22T04:00:33.153Z,0.00
2018-02-22T04:01:33.141Z,0.00
2018-02-22T04:02:33.121Z,0.00
2018-02-22T04:03:33.103Z,0.00
2018-02-22T04:04:33.090Z,0.00
2018-02-22T04:05:33.074Z,0.00
2018-02-22T04:06:33.059Z,0.00
2018-02-22T04:07:33.035Z,0.00
2018-02-22T04:08:33.027Z,0.00
2018-02-22T04:09:33.010Z,0.00
2018-02-22T04:10:32.991Z,0.00
2018-02-22T04:11:32.976Z,0.00
2018-02-22T04:12:32.958Z,0.00
2018-02-22T04:13:32.943Z,0.00
2018-02-22T04:14:32.924Z,0.00
2018-02-22T04:15:32.911Z,0.00
2018-02-22T04:16:32.893Z,0.00
2018-02-22T04:17:32.881Z,0.00
2018-02-22T04:18:32.861Z,0.00
2018-02-22T04:19:32.843Z,0.00
2018-02-22T04:20:32.829Z,0.00
2018-02-22T04:21:32.816Z,0.00
2018-02-22T04:22:32.797Z,0.00
2018-02-22T04:23:32.780Z,0.00
2018-02-22T04:24:32.762Z,0.00
2018-02-22T04:25:32.751Z,0.00
2018-02-22T04:26:32.733Z,0.00
2018-02-22T04:27:32.713Z,0.00
2018-02-22T04:28:32.699Z,0.00
2018-02-22T04:29:32.682Z,0.00
2018-02-22T04:30:32.664Z,0.00
2018-02-22T04:31:32.653Z,0.00
2018-02-22T04:32:32.658Z,0.00
2018-02-22T04:33:32.617Z,0.00
2018-02-22T04:34:32.596Z,0.00
2018-02-22T04:35:32.580Z,0.00
2018-02-22T04:36:32.565Z,0.00
2018-02-22T04:37:32.550Z,0.00
2018-02-22T04:38:32.532Z,0.00
2018-02-22T04:39:32.518Z,0.00
2018-02-22T04:40:32.500Z,0.00
2018-02-22T04:41:32.485Z,0.00
2018-02-22T04:42:32.466Z,0.00
2018-02-22T04:43:32.459Z,0.00
2018-02-22T04:44:32.453Z,0.00
2018-02-22T04:45:32.422Z,0.00
2018-02-22T04:46:32.407Z,0.00
2018-02-22T04:47:32.386Z,0.00
2018-02-22T04:48:32.370Z,0.00
2018-02-22T04:49:32.354Z,0.00
2018-02-22T04:50:32.343Z,0.00
2018-02-22T04:51:32.344Z,0.00
2018-02-22T04:52:32.302Z,0.00
2018-02-22T04:53:32.286Z,0.00
2018-02-22T04:54:32.273Z,0.00
2018-02-22T04:55:32.256Z,0.00
2018-02-22T04:56:32.241Z,0.00
2018-02-22T04:57:32.223Z,0.00
2018-02-22T04:58:32.205Z,0.00
2018-02-22T04:59:32.189Z,0.00
2018-02-22T05:00:32.174Z,0.00
2018-02-22T05:01:32.158Z,0.00
2018-02-22T05:02:32.143Z,0.00
2018-02-22T05:03:32.121Z,0.00
2018-02-22T05:04:32.107Z,0.00
2018-02-22T05:05:32.091Z,0.00
2018-02-22T05:06:32.068Z,0.00
2018-02-22T05:07:32.057Z,0.00
2018-02-22T05:08:32.038Z,0.00
2018-02-22T05:09:32.033Z,0.00
2018-02-22T05:10:32.006Z,0.00
2018-02-22T05:11:31.990Z,0.00
2018-02-22T05:12:31.974Z,0.00
2018-02-22T05:13:31.958Z,0.00
2018-02-22T05:14:31.947Z,0.00
2018-02-22T05:15:31.925Z,0.00
2018-02-22T05:16:31.908Z,0.00
2018-02-22T05:17:31.893Z,0.00
2018-02-22T05:18:31.881Z,0.00
2018-02-22T05:19:31.858Z,0.00
2018-02-22T05:20:31.856Z,0.00
2018-02-22T05:21:31.829Z,0.00
2018-02-22T05:22:31.820Z,0.00
2018-02-22T05:23:31.793Z,0.00
2018-02-22T05:24:31.775Z,0.00
2018-02-22T05:25:31.762Z,0.00
2018-02-22T05:26:31.745Z,0.00
2018-02-22T05:27:31.727Z,0.00
2018-02-22T05:28:31.726Z,0.00
2018-02-22T05:29:31.699Z,0.00
2018-02-22T05:30:31.679Z,0.00
2018-02-22T05:31:31.664Z,0.00
2018-02-22T05:32:31.658Z,0.00
2018-02-22T05:33:31.642Z,0.00
2018-02-22T05:34:31.620Z,0.00
2018-02-22T05:35:32.413Z,0.00
2018-02-22T05:36:32.414Z,0.00
2018-02-22T05:37:31.556Z,0.00
2018-02-22T05:38:31.545Z,0.00
2018-02-22T05:39:31.528Z,0.00
2018-02-22T05:40:31.512Z,0.00
2018-02-22T05:41:31.496Z,0.00
2018-02-22T05:42:31.477Z,0.00
2018-02-22T05:43:31.454Z,0.00
2018-02-22T05:44:31.445Z,0.00
2018-02-22T05:45:31.431Z,0.00
2018-02-22T05:46:31.415Z,0.00
2018-02-22T05:47:31.401Z,0.00
2018-02-22T05:48:31.377Z,0.00
2018-02-22T05:49:31.364Z,0.00
2018-02-22T05:50:31.978Z,0.00
2018-02-22T05:51:31.348Z,0.00
2018-02-22T05:52:31.351Z,4.00
2018-02-22T05:53:31.324Z,4.00
2018-02-22T05:54:31.309Z,0.00
2018-02-22T05:55:31.272Z,4.00
2018-02-22T05:56:31.291Z,4.00
2018-02-22T05:57:31.240Z,4.00
2018-02-22T05:58:31.239Z,8.00
2018-02-22T05:59:31.216Z,8.00
2018-02-22T06:00:31.222Z,12.00
2018-02-22T06:01:31.232Z,12.00
2018-02-22T06:02:31.176Z,12.00
2018-02-22T06:03:31.140Z,12.00
2018-02-22T06:04:31.119Z,16.00
2018-02-22T06:05:31.127Z,20.00
2018-02-22T06:06:31.084Z,24.00
2018-02-22T06:07:31.074Z,28.00
2018-02-22T06:08:31.055Z,32.00
2018-02-22T06:09:31.046Z,36.00
2018-02-22T06:10:31.018Z,44.00
2018-02-22T06:11:31.004Z,48.00
2018-02-22T06:12:30.984Z,56.00
2018-02-22T06:13:30.969Z,60.00
2018-02-22T06:14:30.959Z,72.00
2018-02-22T06:15:30.934Z,76.00
2018-02-22T06:16:30.920Z,84.00
2018-02-22T06:17:30.896Z,96.00
2018-02-22T06:18:30.912Z,104.00
2018-02-22T06:19:30.885Z,112.00
2018-02-22T06:20:30.858Z,136.00
2018-02-22T06:21:30.842Z,148.00
2018-02-22T06:22:30.814Z,160.00
2018-02-22T06:23:30.808Z,168.00
2018-02-22T06:24:30.789Z,192.00
2018-02-22T06:25:30.765Z,196.00
2018-02-22T06:26:30.754Z,216.00
2018-02-22T06:27:30.741Z,244.00
2018-02-22T06:28:30.723Z,276.00
2018-02-22T06:29:30.708Z,300.00
2018-02-22T06:30:30.694Z,300.00
2018-02-22T06:31:30.673Z,348.00
2018-02-22T06:32:30.660Z,360.00
2018-02-22T06:33:30.646Z,356.00
2018-02-22T06:34:30.639Z,416.00
2018-02-22T06:35:30.613Z,464.00
2018-02-22T06:36:30.674Z,484.00
2018-02-22T06:37:30.573Z,472.00
2018-02-22T06:38:30.564Z,500.00
2018-02-22T06:39:30.544Z,508.00
2018-02-22T06:40:30.543Z,548.00
2018-02-22T06:41:30.515Z,536.00
2018-02-22T06:42:30.490Z,608.00
2018-02-22T06:43:30.476Z,644.00
2018-02-22T06:44:30.463Z,636.00
2018-02-22T06:45:30.448Z,684.00
2018-02-22T06:46:30.432Z,688.00
2018-02-22T06:47:30.419Z,788.00
2018-02-22T06:48:30.396Z,904.00
2018-02-22T06:49:30.386Z,1020.00
2018-02-22T06:50:30.368Z,1024.00
2018-02-22T06:51:30.357Z,1104.00
2018-02-22T06:52:30.340Z,1024.00
2018-02-22T06:53:30.315Z,1044.00
2018-02-22T06:54:30.301Z,1160.00
2018-02-22T06:55:30.284Z,1284.00
2018-02-22T06:56:30.268Z,1324.00
2018-02-22T06:57:30.261Z,1288.00
2018-02-22T06:58:30.268Z,1364.00
2018-02-22T06:59:30.262Z,1360.00
2018-02-22T07:00:30.222Z,1360.00
2018-02-22T07:01:30.282Z,1408.00
2018-02-22T07:02:30.176Z,1512.00
2018-02-22T07:03:30.159Z,1604.00
2018-02-22T07:04:30.139Z,1552.00
2018-02-22T07:05:30.124Z,1420.00
2018-02-22T07:06:30.144Z,1440.00
2018-02-22T07:07:30.093Z,1444.00
2018-02-22T07:08:30.079Z,1600.00
2018-02-22T07:09:30.061Z,1804.00
2018-02-22T07:10:30.046Z,1960.00
2018-02-22T07:11:30.079Z,2040.00
2018-02-22T07:12:30.013Z,1988.00
2018-02-22T07:13:29.999Z,1860.00
2018-02-22T07:14:29.980Z,1788.00
2018-02-22T07:15:29.966Z,1700.00
2018-02-22T07:16:29.952Z,1764.00
2018-02-22T07:17:29.934Z,1644.00
2018-02-22T07:18:29.921Z,1592.00
2018-02-22T07:19:29.898Z,1572.00
2018-02-22T07:20:29.939Z,1500.00
2018-02-22T07:21:29.869Z,1412.00
2018-02-22T07:22:29.857Z,1484.00
2018-02-22T07:23:29.842Z,1400.00
2018-02-22T07:24:29.823Z,1600.00
2018-02-22T07:25:29.806Z,1768.00
2018-02-22T07:26:29.790Z,1864.00
2018-02-22T07:27:29.776Z,1880.00
2018-02-22T07:28:29.759Z,1828.00
2018-02-22T07:29:29.741Z,1792.00
2018-02-22T07:30:29.725Z,1804.00
2018-02-22T07:31:29.710Z,1876.00
2018-02-22T07:32:29.701Z,1968.00
2018-02-22T07:33:29.676Z,2052.00
2018-02-22T07:34:29.673Z,2012.00
2018-02-22T07:35:29.647Z,2120.00
2018-02-22T07:36:29.635Z,2008.00
2018-02-22T07:37:29.618Z,1968.00
2018-02-22T07:38:29.604Z,1996.00
2018-02-22T07:39:29.585Z,1888.00
2018-02-22T07:40:29.568Z,1824.00
2018-02-22T07:41:29.551Z,1820.00
2018-02-22T07:42:29.536Z,1964.00
2018-02-22T07:43:29.521Z,2000.00
2018-02-22T07:44:29.505Z,2076.00
2018-02-22T07:45:29.496Z,2268.00
2018-02-22T07:46:29.474Z,2160.00
2018-02-22T07:47:29.460Z,2336.00
2018-02-22T07:48:29.442Z,2336.00
2018-02-22T07:49:29.427Z,2508.00
2018-02-22T07:50:29.411Z,2716.00
2018-02-22T07:51:29.395Z,2536.00
2018-02-22T07:52:29.425Z,2376.00
2018-02-22T07:53:29.363Z,2404.00
2018-02-22T07:54:29.346Z,2364.00
2018-02-22T07:55:29.329Z,2196.00
2018-02-22T07:56:29.320Z,2248.00
2018-02-22T07:57:29.303Z,2016.00
2018-02-22T07:58:29.283Z,2020.00
2018-02-22T07:59:29.274Z,1868.00
2018-02-22T08:00:29.254Z,1920.00
2018-02-22T08:01:29.238Z,1936.00
2018-02-22T08:02:29.246Z,1836.00
2018-02-22T08:03:29.215Z,1796.00
2018-02-22T08:04:29.210Z,1948.00
2018-02-22T08:05:29.225Z,2020.00
2018-02-22T08:06:29.160Z,2212.00
2018-02-22T08:07:29.142Z,2188.00
2018-02-22T08:08:29.125Z,2156.00
2018-02-22T08:09:29.112Z,2332.00
2018-02-22T08:10:29.098Z,2632.00
2018-02-22T08:11:29.081Z,2532.00
2018-02-22T08:12:29.064Z,2836.00
2018-02-22T08:13:29.053Z,2720.00
2018-02-22T08:14:29.034Z,2516.00
2018-02-22T08:15:29.018Z,2560.00
2018-02-22T08:16:28.998Z,2420.00
2018-02-22T08:17:28.985Z,2504.00
2018-02-22T08:18:28.971Z,2840.00
2018-02-22T08:19:28.957Z,2716.00
2018-02-22T08:20:28.938Z,2888.00
2018-02-22T08:21:28.921Z,2936.00
2018-02-22T08:22:28.910Z,2876.00
2018-02-22T08:23:28.891Z,2780.00
2018-02-22T08:24:28.875Z,3024.00
2018-02-22T08:25:28.858Z,3568.00
2018-02-22T08:26:28.842Z,3536.00
2018-02-22T08:27:28.829Z,3676.00
2018-02-22T08:28:28.815Z,4112.00
2018-02-22T08:29:28.821Z,4472.00
2018-02-22T08:30:28.797Z,3976.00
2018-02-22T08:31:28.765Z,4076.00
2018-02-22T08:32:28.751Z,4364.00
2018-02-22T08:33:28.738Z,4100.00
2018-02-22T08:34:28.720Z,3504.00
2018-02-22T08:35:28.703Z,3040.00
2018-02-22T08:36:28.718Z,2924.00
2018-02-22T08:37:28.678Z,3644.00
2018-02-22T08:38:28.658Z,4124.00
2018-02-22T08:39:28.714Z,3772.00
2018-02-22T08:40:28.628Z,4168.00
2018-02-22T08:41:28.613Z,4324.00
2018-02-22T08:42:28.594Z,4308.00
2018-02-22T08:43:28.581Z,4104.00
2018-02-22T08:44:28.565Z,4044.00
2018-02-22T08:45:28.553Z,3864.00
2018-02-22T08:46:28.530Z,4248.00
2018-02-22T08:47:28.515Z,4744.00
2018-02-22T08:48:28.502Z,4616.00
2018-02-22T08:49:28.483Z,5176.00
2018-02-22T08:50:28.470Z,5108.00
2018-02-22T08:51:28.458Z,5160.00
2018-02-22T08:52:28.438Z,4956.00
2018-02-22T08:53:28.424Z,5036.00
2018-02-22T08:54:28.409Z,5604.00
2018-02-22T08:55:28.395Z,5432.00
2018-02-22T08:56:28.380Z,5452.00
2018-02-22T08:57:28.368Z,5476.00
2018-02-22T08:58:28.348Z,5932.00
2018-02-22T08:59:28.333Z,6212.00
2018-02-22T09:00:28.326Z,6316.00
2018-02-22T09:01:28.304Z,6632.00
2018-02-22T09:02:28.286Z,6700.00
2018-02-22T09:03:28.272Z,6652.00
2018-02-22T09:04:28.266Z,6236.00
2018-02-22T09:05:28.242Z,6380.00
2018-02-22T09:06:28.231Z,6372.00
2018-02-22T09:07:28.211Z,6868.00
2018-02-22T09:08:28.196Z,6632.00
2018-02-22T09:09:28.185Z,6920.00
2018-02-22T09:10:28.167Z,6804.00
2018-02-22T09:11:28.151Z,7156.00
2018-02-22T09:12:28.136Z,7420.00
2018-02-22T09:13:28.129Z,7136.00
2018-02-22T09:14:28.106Z,7148.00
2018-02-22T09:15:28.095Z,7488.00
2018-02-22T09:16:28.078Z,8016.00
2018-02-22T09:17:28.065Z,7672.00
2018-02-22T09:18:28.048Z,7572.00
2018-02-22T09:19:28.077Z,7528.00
2018-02-22T09:20:28.019Z,7416.00
2018-02-22T09:21:28.005Z,6884.00
2018-02-22T09:22:27.989Z,7288.00
2018-02-22T09:23:27.973Z,7772.00
2018-02-22T09:24:27.957Z,7828.00
2018-02-22T09:25:27.944Z,8024.00
2018-02-22T09:26:27.928Z,8332.00
2018-02-22T09:27:27.912Z,8280.00
2018-02-22T09:28:27.898Z,8252.00
2018-02-22T09:29:27.886Z,8788.00
2018-02-22T09:30:27.870Z,9288.00
2018-02-22T09:31:27.855Z,8872.00
2018-02-22T09:32:27.843Z,9052.00
2018-02-22T09:33:27.827Z,9284.00
2018-02-22T09:34:27.812Z,10008.00
2018-02-22T09:35:27.800Z,10328.00
2018-02-22T09:36:27.793Z,10084.00
2018-02-22T09:37:27.773Z,9952.00
2018-02-22T09:38:27.763Z,11028.00
2018-02-22T09:39:27.740Z,11476.00
2018-02-22T09:40:27.728Z,11104.00
2018-02-22T09:41:27.713Z,11652.00
2018-02-22T09:42:27.700Z,11556.00
2018-02-22T09:43:27.687Z,12812.00
2018-02-22T09:44:27.670Z,12532.00
2018-02-22T09:45:27.658Z,11696.00
2018-02-22T09:46:27.643Z,11340.00
2018-02-22T09:47:27.630Z,11372.00
2018-02-22T09:48:27.616Z,11380.00
2018-02-22T09:49:27.596Z,11228.00
2018-02-22T09:50:27.579Z,11432.00
2018-02-22T09:51:27.569Z,12272.00
2018-02-22T09:52:27.557Z,11256.00
2018-02-22T09:53:27.544Z,11096.00
2018-02-22T09:54:27.563Z,11632.00
2018-02-22T09:55:27.513Z,11924.00
2018-02-22T09:56:27.500Z,11148.00
2018-02-22T09:57:27.497Z,11048.00
2018-02-22T09:58:27.476Z,10376.00
2018-02-22T09:59:27.460Z,9652.00
2018-02-22T10:00:27.446Z,9904.00
2018-02-22T10:01:27.433Z,9788.00
2018-02-22T10:02:27.421Z,9288.00
2018-02-22T10:03:27.404Z,8900.00
2018-02-22T10:04:27.391Z,8904.00
2018-02-22T10:05:27.379Z,8744.00
2018-02-22T10:06:27.362Z,8596.00
2018-02-22T10:07:27.353Z,9264.00
2018-02-22T10:08:27.335Z,9660.00
2018-02-22T10:09:27.323Z,11676.00
2018-02-22T10:10:27.323Z,12824.00
2018-02-22T10:11:27.293Z,13224.00
2018-02-22T10:12:27.268Z,12560.00
2018-02-22T10:13:27.319Z,12420.00
2018-02-22T10:14:27.252Z,13196.00
2018-02-22T10:15:27.254Z,12324.00
2018-02-22T10:16:27.261Z,11600.00
2018-02-22T10:17:27.207Z,11256.00
2018-02-22T10:18:27.194Z,10312.00
2018-02-22T10:19:27.183Z,9488.00
2018-02-22T10:20:27.182Z,8444.00
2018-02-22T10:21:27.149Z,8340.00
2018-02-22T10:22:27.142Z,8368.00
2018-02-22T10:23:27.125Z,8200.00
2018-02-22T10:24:27.112Z,8204.00
2018-02-22T10:25:27.172Z,7868.00
2018-02-22T10:26:27.089Z,7900.00
2018-02-22T10:27:27.081Z,7808.00
2018-02-22T10:28:27.058Z,8028.00
2018-02-22T10:29:27.042Z,7724.00
2018-02-22T10:30:27.032Z,8088.00
2018-02-22T10:31:27.017Z,7880.00
2018-02-22T10:32:27.001Z,7976.00
2018-02-22T10:33:26.996Z,7636.00
2018-02-22T10:34:26.966Z,7848.00
2018-02-22T10:35:26.957Z,7852.00
2018-02-22T10:36:26.943Z,8308.00
2018-02-22T10:37:26.932Z,8232.00
2018-02-22T10:38:26.914Z,8024.00
2018-02-22T10:39:26.900Z,8148.00
2018-02-22T10:40:26.887Z,8272.00
2018-02-22T10:41:26.870Z,8188.00
2018-02-22T10:42:26.859Z,8412.00
2018-02-22T10:43:26.844Z,7928.00
2018-02-22T10:44:26.827Z,7428.00
2018-02-22T10:45:26.813Z,7808.00
2018-02-22T10:46:26.804Z,8160.00
2018-02-22T10:47:26.785Z,8660.00
2018-02-22T10:48:26.778Z,8872.00
2018-02-22T10:49:26.759Z,8756.00
2018-02-22T10:50:26.752Z,9104.00
2018-02-22T10:51:26.734Z,9356.00
2018-02-22T10:52:26.714Z,8700.00
2018-02-22T10:53:26.702Z,9228.00
2018-02-22T10:54:26.701Z,9224.00
2018-02-22T10:55:26.674Z,8960.00
2018-02-22T10:56:26.657Z,10244.00
2018-02-22T10:57:26.648Z,10148.00
2018-02-22T10:58:26.643Z,10200.00
2018-02-22T10:59:26.615Z,10200.00
2018-02-22T11:00:26.598Z,10552.00
2018-02-22T11:01:26.586Z,10356.00
2018-02-22T11:02:26.575Z,10368.00
2018-02-22T11:03:26.552Z,11464.00
2018-02-22T11:04:26.540Z,10344.00
2018-02-22T11:05:26.529Z,9836.00
2018-02-22T11:06:26.512Z,10224.00
2018-02-22T11:07:26.543Z,10600.00
2018-02-22T11:08:26.488Z,9816.00
2018-02-22T11:09:26.507Z,9848.00
2018-02-22T11:10:26.459Z,9708.00
2018-02-22T11:11:26.447Z,9484.00
2018-02-22T11:12:26.431Z,9304.00
2018-02-22T11:13:26.422Z,9348.00
2018-02-22T11:14:26.403Z,9396.00
2018-02-22T11:15:26.411Z,9336.00
2018-02-22T11:16:26.403Z,10024.00
2018-02-22T11:17:26.362Z,10244.00
2018-02-22T11:18:26.341Z,11120.00
2018-02-22T11:19:26.334Z,10712.00
2018-02-22T11:20:26.321Z,10924.00
2018-02-22T11:21:26.311Z,10080.00
2018-02-22T11:22:26.297Z,10168.00
2018-02-22T11:23:26.276Z,10008.00
2018-02-22T11:24:26.264Z,9732.00
2018-02-22T11:25:26.252Z,9520.00
2018-02-22T11:26:26.240Z,9616.00
2018-02-22T11:27:26.222Z,9816.00
2018-02-22T11:28:26.212Z,9720.00
2018-02-22T11:29:26.198Z,9264.00
2018-02-22T11:30:26.186Z,10252.00
2018-02-22T11:31:26.174Z,9888.00
2018-02-22T11:32:26.155Z,9100.00
2018-02-22T11:33:26.155Z,9236.00
2018-02-22T11:34:26.130Z,9240.00
2018-02-22T11:35:26.111Z,9640.00
2018-02-22T11:36:26.107Z,9228.00
2018-02-22T11:37:26.087Z,9808.00
2018-02-22T11:38:26.074Z,9808.00
2018-02-22T11:39:26.059Z,10100.00
2018-02-22T11:40:26.035Z,10284.00
2018-02-22T11:41:26.036Z,9464.00
2018-02-22T11:42:26.015Z,8832.00
2018-02-22T11:43:26.006Z,8340.00
2018-02-22T11:44:25.989Z,8504.00
2018-02-22T11:45:25.977Z,9464.00
2018-02-22T11:46:25.965Z,10044.00
2018-02-22T11:47:25.944Z,10292.00
2018-02-22T11:48:25.944Z,10508.00
2018-02-22T11:49:25.925Z,10664.00
2018-02-22T11:50:25.908Z,10468.00
2018-02-22T11:51:25.891Z,11460.00
2018-02-22T11:52:25.880Z,11148.00
2018-02-22T11:53:25.865Z,11260.00
2018-02-22T11:54:25.851Z,12640.00
2018-02-22T11:55:25.835Z,13212.00
2018-02-22T11:56:25.830Z,13828.00
2018-02-22T11:57:25.810Z,12820.00
2018-02-22T11:58:25.795Z,12460.00
2018-02-22T11:59:25.784Z,13284.00
2018-02-22T12:00:25.771Z,14072.00
2018-02-22T12:01:25.762Z,14524.00
2018-02-22T12:02:25.755Z,14064.00
2018-02-22T12:03:25.732Z,14936.00
2018-02-22T12:04:25.717Z,18176.00
2018-02-22T12:05:25.701Z,18240.00
2018-02-22T12:06:25.695Z,17116.00
2018-02-22T12:07:25.680Z,17504.00
2018-02-22T12:08:25.664Z,16520.00
2018-02-22T12:09:25.654Z,16944.00
2018-02-22T12:10:25.639Z,13908.00
2018-02-22T12:11:25.626Z,15044.00
2018-02-22T12:12:25.614Z,15292.00
2018-02-22T12:13:25.603Z,14732.00
2018-02-22T12:14:25.591Z,16324.00
2018-02-22T12:15:25.575Z,15984.00
2018-02-22T12:16:25.567Z,17376.00
2018-02-22T12:17:25.558Z,18656.00
2018-02-22T12:18:25.538Z,18112.00
2018-02-22T12:19:25.528Z,17824.00
2018-02-22T12:20:25.514Z,19008.00
2018-02-22T12:21:25.498Z,18688.00
2018-02-22T12:22:25.496Z,18592.00
2018-02-22T12:23:25.475Z,19488.00
2018-02-22T12:26:51.856Z,18112.00
2018-02-22T13:19:51.266Z,8944.00
2018-02-22T13:21:19.955Z,10660.00
2018-02-22T19:33:09.308Z,0.00
2018-02-22T19:34:09.309Z,0.00
2018-02-22T19:36:02.081Z,0.00
2018-02-22T19:37:02.037Z,0.00
2018-02-22T19:38:02.024Z,0.00
2018-02-22T19:39:02.017Z,0.00
2018-02-22T19:40:01.982Z,0.00
2018-02-22T19:41:02.003Z,0.00
2018-02-22T19:42:01.962Z,0.00
2018-02-22T19:43:01.952Z,0.00
2018-02-22T19:44:01.930Z,0.00
2018-02-22T19:45:01.927Z,0.00